Time;durP1;ratioP1;P1;durP2;ratioP2;P2;SDS_P1;SDS_P2;PMS_P1;PMS_P2;Temp;Humidity;BMP_temperature;BMP_pressure;BME280_temperature;BME280_humidity;BME280_pressure;Samples;Min_cycle;Max_cycle;Signal;HPM_P1;HPM_P2
2022/03/16 00:02:19;;;;;;;40.97;23.17;;;;;;;5.18;100.00;96234.63;6132700;23;20155;-79
2022/03/16 00:04:45;;;;;;;41.13;22.77;;;;;;;5.22;100.00;96227.56;6133606;23;20257;-80
2022/03/16 00:07:10;;;;;;;42.27;22.10;;;;;;;5.17;100.00;96235.56;6133023;23;20155;-79
2022/03/16 00:09:35;;;;;;;41.83;22.80;;;;;;;5.13;100.00;96239.28;6133208;23;20159;-79
2022/03/16 00:12:00;;;;;;;38.27;22.10;;;;;;;4.95;100.00;96241.25;6131960;23;20155;-79
2022/03/16 00:14:26;;;;;;;41.13;22.53;;;;;;;4.82;100.00;96243.75;6157384;23;20514;-79
2022/03/16 00:16:52;;;;;;;30.77;19.17;;;;;;;4.61;100.00;96239.94;6157614;23;20515;-79
2022/03/16 00:19:17;;;;;;;33.03;19.03;;;;;;;4.75;100.00;96231.34;6133149;23;20190;-79
2022/03/16 00:21:42;;;;;;;30.93;18.70;;;;;;;4.84;100.00;96241.91;6157173;23;20178;-79
2022/03/16 00:24:08;;;;;;;28.23;18.27;;;;;;;4.67;100.00;96238.72;6156104;23;20269;-78
2022/03/16 00:26:33;;;;;;;33.53;18.90;;;;;;;4.67;100.00;96241.28;6157302;23;20162;-79
2022/03/16 00:28:59;;;;;;;31.27;18.53;;;;;;;4.72;100.00;96239.28;6157447;23;20170;-78
2022/03/16 00:31:24;;;;;;;31.07;19.43;;;;;;;4.73;100.00;96238.34;6156893;23;20529;-80
2022/03/16 00:33:49;;;;;;;34.63;21.50;;;;;;;4.77;100.00;96238.09;6132391;23;20194;-79
2022/03/16 00:36:15;;;;;;;38.20;22.17;;;;;;;4.74;100.00;96234.84;6157852;23;20500;-79
2022/03/16 00:38:40;;;;;;;41.23;22.73;;;;;;;4.77;100.00;96232.94;6157252;23;20159;-79
2022/03/16 00:41:07;;;;;;;42.20;23.63;;;;;;;4.81;100.00;96226.66;6131967;23;20249;-79
2022/03/16 00:43:33;;;;;;;40.30;21.97;;;;;;;4.81;100.00;96229.25;6132768;23;20198;-79
2022/03/16 00:45:58;;;;;;;45.33;22.03;;;;;;;4.84;100.00;96231.59;6157627;23;20158;-79
2022/03/16 00:48:23;;;;;;;42.33;22.70;;;;;;;4.78;100.00;96232.00;6157197;23;20593;-79
2022/03/16 00:50:49;;;;;;;41.93;22.37;;;;;;;4.83;100.00;96234.28;6183315;23;20154;-78
2022/03/16 00:53:14;;;;;;;39.13;21.13;;;;;;;5.05;100.00;96231.19;6156341;23;20155;-79
2022/03/16 00:55:40;;;;;;;42.10;21.23;;;;;;;5.02;100.00;96229.63;6132026;23;20155;-79
2022/03/16 00:58:05;;;;;;;38.77;20.70;;;;;;;4.83;100.00;96231.72;6181893;23;20158;-79
2022/03/16 01:00:31;;;;;;;38.30;20.53;;;;;;;4.96;100.00;96224.88;6157045;23;20158;-78
2022/03/16 01:02:56;;;;;;;41.63;17.90;;;;;;;4.87;100.00;96222.91;6156214;23;20171;-79
2022/03/16 01:05:21;;;;;;;32.47;14.70;;;;;;;4.93;100.00;96224.25;6156803;23;20193;-78
2022/03/16 01:07:47;;;;;;;31.23;14.47;;;;;;;4.90;100.00;96224.44;6156803;23;20245;-79
2022/03/16 01:10:12;;;;;;;26.23;12.20;;;;;;;4.94;100.00;96215.59;6132044;23;20173;-79
2022/03/16 01:12:38;;;;;;;30.27;13.40;;;;;;;5.00;100.00;96210.06;6182838;23;20222;-79
2022/03/16 01:15:03;;;;;;;32.17;12.80;;;;;;;5.11;100.00;96212.78;6132040;23;20209;-79
2022/03/16 01:17:29;;;;;;;25.57;11.63;;;;;;;5.13;100.00;96212.69;6131923;23;20166;-79
2022/03/16 01:19:54;;;;;;;34.40;12.50;;;;;;;5.05;100.00;96208.84;6132209;23;20163;-79
2022/03/16 01:22:19;;;;;;;28.10;11.87;;;;;;;5.08;100.00;96212.97;6155306;23;20572;-79
2022/03/16 01:24:45;;;;;;;22.50;11.57;;;;;;;5.07;100.00;96216.47;6132968;23;20192;-79
2022/03/16 01:27:10;;;;;;;31.73;11.90;;;;;;;5.02;100.00;96214.19;6133352;23;20244;-79
2022/03/16 01:29:35;;;;;;;26.30;13.00;;;;;;;5.05;100.00;96220.91;6133332;23;20155;-79
2022/03/16 01:32:01;;;;;;;22.80;12.17;;;;;;;5.11;100.00;96212.78;6157321;23;20158;-79
2022/03/16 01:34:26;;;;;;;22.23;11.70;;;;;;;5.13;100.00;96216.09;6182259;23;20182;-79
2022/03/16 01:36:51;;;;;;;26.57;11.73;;;;;;;5.09;100.00;96214.63;6183851;23;20245;-79
2022/03/16 01:39:17;;;;;;;31.70;11.87;;;;;;;5.10;100.00;96218.84;6157390;23;20158;-79
2022/03/16 01:41:42;;;;;;;26.73;12.03;;;;;;;5.06;100.00;96220.81;6156331;23;20159;-79
2022/03/16 01:44:08;;;;;;;24.03;11.80;;;;;;;5.09;100.00;96217.19;6157358;23;20186;-79
2022/03/16 01:46:34;;;;;;;26.37;12.00;;;;;;;5.07;100.00;96216.47;6132426;23;20155;-79
2022/03/16 01:48:59;;;;;;;26.77;12.63;;;;;;;5.16;100.00;96207.34;6183333;23;20158;-79
2022/03/16 01:51:25;;;;;;;27.77;12.17;;;;;;;5.07;100.00;96216.47;6131468;23;20163;-79
2022/03/16 01:53:50;;;;;;;35.17;15.90;;;;;;;5.05;100.00;96213.19;6157080;23;20171;-79
2022/03/16 01:56:16;;;;;;;37.13;16.37;;;;;;;5.07;100.00;96221.63;6156911;23;20532;-79
2022/03/16 01:58:42;;;;;;;33.27;15.83;;;;;;;5.10;100.00;96226.56;6157036;23;20155;-79
2022/03/16 02:01:08;;;;;;;36.43;16.10;;;;;;;5.03;100.00;96223.56;6131877;23;20169;-79
2022/03/16 02:03:33;;;;;;;40.17;16.40;;;;;;;5.03;100.00;96226.13;6132020;23;20194;-79
2022/03/16 02:05:59;;;;;;;30.23;15.17;;;;;;;5.07;100.00;96216.47;6182997;23;20154;-79
2022/03/16 02:08:27;;;;;;;31.57;17.27;;;;;;;5.04;100.00;96212.34;6156733;23;20228;-79
2022/03/16 02:10:52;;;;;;;31.57;15.40;;;;;;;5.01;100.00;96206.56;6156730;23;20151;-79
2022/03/16 02:13:17;;;;;;;38.07;16.50;;;;;;;5.05;100.00;96214.00;6131366;23;20154;-79
2022/03/16 02:15:43;;;;;;;32.13;16.17;;;;;;;5.05;100.00;96202.88;6183155;23;20169;-79
2022/03/16 02:18:08;;;;;;;37.07;17.80;;;;;;;5.01;100.00;96204.00;6156362;23;20589;-78
2022/03/16 02:20:33;;;;;;;36.53;18.27;;;;;;;5.01;100.00;96201.41;6182620;23;20155;-79
2022/03/16 02:23:01;;;;;;;37.87;18.17;;;;;;;5.06;100.00;96199.38;6180631;23;20632;-78
2022/03/16 02:25:27;;;;;;;31.50;17.17;;;;;;;5.18;100.00;96200.34;6156018;23;20561;-80
2022/03/16 02:27:53;;;;;;;39.13;18.63;;;;;;;5.08;100.00;96202.69;6156096;23;20246;-78
2022/03/16 02:30:23;;;;;;;37.97;18.37;;;;;;;5.09;100.00;96210.31;6131569;23;20514;-77
2022/03/16 02:32:49;;;;;;;44.33;18.83;;;;;;;5.15;100.00;96209.09;6131453;23;20189;-79
2022/03/16 02:35:14;;;;;;;37.57;18.13;;;;;;;5.19;100.00;96202.81;6156274;23;20193;-79
2022/03/16 02:37:40;;;;;;;43.20;17.67;;;;;;;5.21;100.00;96200.97;6156895;23;20592;-79
2022/03/16 02:40:07;;;;;;;46.20;19.70;;;;;;;5.19;100.00;96207.13;6156432;23;20269;-79
2022/03/16 02:42:33;;;;;;;46.40;19.27;;;;;;;5.21;100.00;96203.56;6182483;23;20157;-79
2022/03/16 02:44:58;;;;;;;48.87;21.27;;;;;;;5.07;100.00;96203.59;6131812;23;20191;-79
2022/03/16 02:47:24;;;;;;;50.90;21.37;;;;;;;5.08;100.00;96200.09;6183373;23;20162;-79
2022/03/16 02:49:50;;;;;;;49.90;20.10;;;;;;;4.99;100.00;96198.94;6134412;23;20205;-79
2022/03/16 02:52:15;;;;;;;46.77;20.93;;;;;;;5.03;100.00;96204.72;6157991;23;20158;-79
2022/03/16 02:54:41;;;;;;;45.53;22.00;;;;;;;5.06;100.00;96209.69;6133694;23;20613;-79
2022/03/16 02:57:07;;;;;;;50.97;23.17;;;;;;;5.01;100.00;96220.25;6134017;23;20162;-79
2022/03/16 02:59:33;;;;;;;50.47;21.73;;;;;;;5.14;100.00;96215.16;6158863;23;20160;-79
2022/03/16 03:01:58;;;;;;;45.13;21.60;;;;;;;5.04;100.00;96211.53;6158108;23;20194;-79
2022/03/16 03:04:23;;;;;;;44.77;21.17;;;;;;;5.09;100.00;96220.59;6158536;23;20194;-78
2022/03/16 03:06:48;;;;;;;41.57;20.80;;;;;;;5.01;100.00;96211.72;6185205;23;20154;-79
2022/03/16 03:09:14;;;;;;;38.67;20.27;;;;;;;5.07;100.00;96217.31;6158706;23;20246;-78
2022/03/16 03:11:40;;;;;;;44.70;22.60;;;;;;;4.99;100.00;96213.56;6157703;23;20151;-79
2022/03/16 03:14:05;;;;;;;40.27;20.47;;;;;;;5.02;100.00;96213.34;6184600;23;20523;-78
2022/03/16 03:16:31;;;;;;;38.33;20.20;;;;;;;5.08;100.00;96215.56;6133606;23;20273;-79
2022/03/16 03:18:56;;;;;;;41.87;20.10;;;;;;;5.05;100.00;96218.34;6158330;23;20150;-78
2022/03/16 03:21:21;;;;;;;40.77;20.67;;;;;;;5.00;100.00;96222.94;6132866;23;20532;-78
2022/03/16 03:23:46;;;;;;;41.27;18.77;;;;;;;5.06;100.00;96223.38;6157427;23;20189;-78
2022/03/16 03:26:12;;;;;;;39.30;19.43;;;;;;;5.00;100.00;96223.75;6157927;23;20151;-78
2022/03/16 03:28:37;;;;;;;42.13;19.70;;;;;;;4.98;100.00;96225.59;6133644;23;20552;-79
2022/03/16 03:31:03;;;;;;;38.33;19.20;;;;;;;5.04;100.00;96221.84;6158273;23;20229;-78
2022/03/16 03:33:29;;;;;;;36.40;18.47;;;;;;;5.08;100.00;96220.69;6132290;23;20190;-78
2022/03/16 03:35:54;;;;;;;38.90;18.63;;;;;;;5.09;100.00;96219.78;6157642;23;20475;-78
2022/03/16 03:38:19;;;;;;;37.97;19.57;;;;;;;5.11;100.00;96217.91;6157477;23;20165;-77
2022/03/16 03:40:45;;;;;;;35.03;18.53;;;;;;;5.14;100.00;96220.31;6132862;23;20162;-78
2022/03/16 03:43:10;;;;;;;37.73;18.03;;;;;;;5.10;100.00;96217.09;6156785;23;20229;-78
2022/03/16 03:45:35;;;;;;;37.03;17.80;;;;;;;5.12;100.00;96214.41;6157391;23;20589;-77
2022/03/16 03:48:01;;;;;;;40.50;18.90;;;;;;;5.09;100.00;96219.78;6157914;23;20155;-78
2022/03/16 03:50:26;;;;;;;32.73;16.23;;;;;;;5.16;100.00;96225.38;6157649;23;20162;-78
2022/03/16 03:52:51;;;;;;;34.67;17.13;;;;;;;5.15;100.00;96223.72;6183477;23;20158;-80
2022/03/16 03:55:17;;;;;;;38.73;17.77;;;;;;;5.07;100.00;96221.63;6183776;23;20171;-79
2022/03/16 03:57:42;;;;;;;33.70;18.00;;;;;;;5.19;100.00;96220.00;6133280;23;20182;-78
2022/03/16 04:00:08;;;;;;;34.50;17.30;;;;;;;5.17;100.00;96222.69;6157982;23;20165;-78
2022/03/16 04:02:33;;;;;;;38.17;17.93;;;;;;;5.19;100.00;96223.41;6156501;23;20224;-78
2022/03/16 04:05:02;;;;;;;33.77;17.57;;;;;;;5.20;100.00;96217.34;6157617;23;20186;-78
2022/03/16 04:07:27;;;;;;;33.73;17.23;;;;;;;5.19;100.00;96215.69;6182606;23;20158;-78
2022/03/16 04:09:53;;;;;;;30.43;16.17;;;;;;;5.34;100.00;96214.72;6157752;23;20167;-78
2022/03/16 04:12:18;;;;;;;35.70;17.57;;;;;;;5.35;100.00;96216.34;6183421;23;20597;-78
2022/03/16 04:14:44;;;;;;;40.43;18.87;;;;;;;5.27;100.00;96223.75;6183811;23;20526;-78
2022/03/16 04:17:09;;;;;;;40.40;18.53;;;;;;;5.15;100.00;96213.41;6184300;23;20155;-78
2022/03/16 04:19:34;;;;;;;41.47;19.60;;;;;;;5.10;100.00;96221.41;6157743;23;20159;-78
2022/03/16 04:22:00;;;;;;;35.57;18.40;;;;;;;5.38;100.00;96225.63;6132670;23;20165;-78
2022/03/16 04:24:25;;;;;;;36.43;17.90;;;;;;;5.54;100.00;96220.31;6156527;23;20217;-79
2022/03/16 04:26:50;;;;;;;35.33;17.83;;;;;;;5.30;100.00;96228.72;6184527;23;20177;-78
2022/03/16 04:29:16;;;;;;;36.37;18.57;;;;;;;5.50;100.00;96229.16;6184050;23;20150;-78
2022/03/16 04:31:41;;;;;;;38.33;19.33;;;;;;;5.54;100.00;96223.69;6132573;23;20165;-79
2022/03/16 04:34:06;;;;;;;41.70;18.70;;;;;;;5.52;100.00;96228.13;6157547;23;20503;-79
2022/03/16 04:36:31;;;;;;;43.90;19.03;;;;;;;5.53;100.00;96222.06;6133098;23;20158;-78
2022/03/16 04:38:57;;;;;;;37.73;19.27;;;;;;;5.48;100.00;96218.97;6157464;23;20151;-79
2022/03/16 04:41:23;;;;;;;38.77;19.73;;;;;;;5.51;100.00;96221.34;6157031;23;20157;-79
2022/03/16 04:43:48;;;;;;;38.47;19.17;;;;;;;5.65;100.00;96223.00;6157857;23;20213;-79
2022/03/16 04:46:13;;;;;;;36.43;20.00;;;;;;;5.73;100.00;96218.16;6184304;23;20545;-80
2022/03/16 04:48:39;;;;;;;38.83;20.67;;;;;;;5.80;100.00;96226.31;6182826;23;20155;-79
2022/03/16 04:51:05;;;;;;;38.73;18.80;;;;;;;5.86;100.00;96219.00;6132735;23;20193;-79
2022/03/16 04:53:30;;;;;;;43.33;20.07;;;;;;;5.59;100.00;96220.84;6156476;23;20171;-80
2022/03/16 04:55:56;;;;;;;39.83;18.97;;;;;;;5.35;100.00;96228.41;6157007;23;20162;-80
2022/03/16 04:58:21;;;;;;;42.70;20.53;;;;;;;5.28;100.00;96219.41;6132716;23;20155;-81
2022/03/16 05:00:46;;;;;;;41.47;20.20;;;;;;;5.29;100.00;96214.16;6157803;23;20213;-83
2022/03/16 05:03:12;;;;;;;41.70;20.17;;;;;;;5.41;100.00;96217.72;6132997;23;20190;-79
2022/03/16 05:05:37;;;;;;;40.17;20.97;;;;;;;5.42;100.00;96221.13;6132419;23;20166;-79
2022/03/16 05:08:02;;;;;;;46.37;22.83;;;;;;;5.30;100.00;96215.84;6133152;23;20214;-79
2022/03/16 05:10:27;;;;;;;50.57;24.47;;;;;;;5.34;100.00;96214.72;6158195;23;20503;-80
2022/03/16 05:12:53;;;;;;;44.00;20.53;;;;;;;5.36;100.00;96218.00;6157218;23;20146;-80
2022/03/16 05:15:20;;;;;;;46.20;22.60;;;;;;;5.25;100.00;96215.28;6131541;23;20649;-79
2022/03/16 05:17:46;;;;;;;46.33;22.87;;;;;;;5.21;100.00;96218.16;6132749;23;20192;-78
2022/03/16 05:20:11;;;;;;;49.87;24.20;;;;;;;5.22;100.00;96230.97;6157349;23;20155;-81
2022/03/16 05:22:44;;;;;;;48.27;22.40;;;;;;;5.15;100.00;96227.13;6156997;23;20158;-78
2022/03/16 05:25:16;;;;;;;49.57;22.53;;;;;;;5.27;100.00;96234.03;6183473;23;20182;-78
2022/03/16 05:27:41;;;;;;;45.20;22.70;;;;;;;5.23;100.00;96229.22;6133271;23;20189;-77
2022/03/16 05:30:08;;;;;;;47.97;24.23;;;;;;;5.11;100.00;96230.78;6157468;23;20162;-78
2022/03/16 05:32:34;;;;;;;49.70;23.47;;;;;;;5.50;100.00;96234.31;6156804;23;20177;-78
2022/03/16 05:34:59;;;;;;;59.13;24.63;;;;;;;5.61;100.00;96242.16;6133392;23;20589;-79
2022/03/16 05:37:24;;;;;;;48.27;24.63;;;;;;;5.44;100.00;96240.69;6133212;23;20167;-79
2022/03/16 05:39:50;;;;;;;49.63;25.10;;;;;;;5.27;100.00;96241.78;6158157;23;20620;-79
2022/03/16 05:42:15;;;;;;;50.23;24.50;;;;;;;5.89;100.00;96243.75;6132231;23;20163;-79
2022/03/16 05:44:40;;;;;;;64.90;23.13;;;;;;;5.97;100.00;96244.09;6157581;23;20221;-79
2022/03/16 05:47:06;;;;;;;55.33;23.90;;;;;;;5.96;100.00;96242.44;6184138;23;20156;-78
2022/03/16 05:49:31;;;;;;;68.90;23.60;;;;;;;5.85;100.00;96253.44;6132888;23;20169;-78
2022/03/16 05:51:56;;;;;;;60.87;24.53;;;;;;;5.82;100.00;96248.47;6132446;23;20246;-78
2022/03/16 05:54:22;;;;;;;160.47;31.20;;;;;;;5.81;100.00;96253.75;6158142;23;20182;-80
2022/03/16 05:56:47;;;;;;;101.43;26.80;;;;;;;5.92;100.00;96253.91;6133670;23;20162;-80
2022/03/16 05:59:12;;;;;;;73.70;25.20;;;;;;;5.96;100.00;96253.59;6133125;23;20162;-80
2022/03/16 06:01:37;;;;;;;66.23;27.13;;;;;;;5.99;100.00;96259.47;6158117;23;20640;-80
2022/03/16 06:04:03;;;;;;;49.60;25.73;;;;;;;5.94;100.00;96255.44;6135772;23;20190;-79
2022/03/16 06:06:29;;;;;;;93.40;27.50;;;;;;;6.01;100.00;96247.28;6133463;23;20192;-81
2022/03/16 06:08:55;;;;;;;77.20;28.57;;;;;;;5.97;100.00;96255.22;6133088;23;20163;-80
2022/03/16 06:11:20;;;;;;;62.73;27.20;;;;;;;6.10;100.00;96254.44;6134376;23;20162;-81
2022/03/16 06:13:45;;;;;;;47.73;27.10;;;;;;;6.20;100.00;96252.88;6128661;23;20178;-78
2022/03/16 06:16:11;;;;;;;52.13;26.23;;;;;;;6.22;100.00;96261.34;6131461;23;20175;-79
2022/03/16 06:18:36;;;;;;;56.77;26.30;;;;;;;6.24;100.00;96262.06;6156752;23;20146;-78
2022/03/16 06:21:02;;;;;;;86.37;30.67;;;;;;;6.34;100.00;96259.66;6132910;23;20650;-78
2022/03/16 06:23:27;;;;;;;73.73;29.80;;;;;;;6.36;100.00;96266.41;6156614;23;20183;-79
2022/03/16 06:25:53;;;;;;;171.77;36.73;;;;;;;6.27;100.00;96267.00;6132634;23;20158;-79
2022/03/16 06:28:18;;;;;;;77.07;29.23;;;;;;;6.10;100.00;96265.56;6183732;23;20198;-78
2022/03/16 06:30:43;;;;;;;106.53;33.33;;;;;;;6.04;100.00;96275.47;6156915;23;20157;-79
2022/03/16 06:33:09;;;;;;;278.90;38.73;;;;;;;6.16;100.00;96270.28;6157063;23;20620;-79
2022/03/16 06:35:34;;;;;;;168.73;37.93;;;;;;;6.16;100.00;96269.47;6132803;23;20162;-79
2022/03/16 06:37:59;;;;;;;102.03;36.53;;;;;;;6.27;100.00;96267.00;6157783;23;20158;-79
2022/03/16 06:40:25;;;;;;;105.03;34.93;;;;;;;6.30;100.00;96268.56;6132817;23;20165;-79
2022/03/16 06:42:53;;;;;;;96.20;33.60;;;;;;;6.14;100.00;96273.91;6131902;23;20157;-80
2022/03/16 06:45:18;;;;;;;78.90;33.33;;;;;;;6.00;100.00;96284.31;6158902;23;20175;-80
2022/03/16 06:47:44;;;;;;;152.57;38.83;;;;;;;5.94;100.00;96283.81;6133977;23;20158;-80
2022/03/16 06:50:09;;;;;;;221.73;39.53;;;;;;;5.91;100.00;96298.63;6158906;23;20182;-80
2022/03/16 06:52:35;;;;;;;129.27;37.63;;;;;;;6.23;100.00;96287.03;6158006;23;20182;-79
2022/03/16 06:55:00;;;;;;;76.33;35.70;;;;;;;6.38;100.00;96295.50;6158584;23;20837;-79
2022/03/16 06:57:25;;;;;;;96.30;36.77;;;;;;;6.18;100.00;96304.56;6158782;23;20166;-79
2022/03/16 06:59:51;;;;;;;83.47;37.03;;;;;;;6.44;100.00;96296.81;6183891;23;20190;-80
2022/03/16 07:02:17;;;;;;;102.80;38.97;;;;;;;6.27;100.00;96289.38;6183638;23;20158;-80
2022/03/16 07:04:42;;;;;;;107.83;37.70;;;;;;;6.45;100.00;96301.06;6157530;23;20249;-80
2022/03/16 07:07:07;;;;;;;67.43;35.10;;;;;;;6.60;100.00;96312.09;6132714;23;20154;-80
2022/03/16 07:09:32;;;;;;;76.87;35.27;;;;;;;6.25;100.00;96310.13;6158044;23;20594;-80
2022/03/16 07:11:58;;;;;;;85.90;37.00;;;;;;;6.35;100.00;96312.91;6133290;23;20170;-79
2022/03/16 07:14:33;;;;;;;80.93;36.40;;;;;;;6.42;100.00;96312.41;6158156;23;20170;-80
2022/03/16 07:16:59;;;;;;;95.67;37.53;;;;;;;6.64;100.00;96311.78;6160472;23;20633;-79
2022/03/16 07:19:24;;;;;;;76.57;35.03;;;;;;;6.25;100.00;96310.13;6158215;23;20205;-80
2022/03/16 07:21:49;;;;;;;118.37;35.73;;;;;;;6.18;100.00;96314.03;6156640;23;20154;-80
2022/03/16 07:24:15;;;;;;;71.80;34.60;;;;;;;6.14;100.00;96313.44;6156951;23;20194;-81
2022/03/16 07:26:40;;;;;;;100.83;37.60;;;;;;;6.09;100.00;96312.88;6133535;23;20158;-79
2022/03/16 07:29:06;;;;;;;93.83;36.33;;;;;;;6.25;100.00;96316.09;6133277;23;20652;-80
2022/03/16 07:31:31;;;;;;;66.70;33.63;;;;;;;6.33;100.00;96309.63;6133399;23;20158;-79
2022/03/16 07:33:57;;;;;;;92.30;37.43;;;;;;;6.30;100.00;96313.22;6158796;23;20190;-80
2022/03/16 07:36:22;;;;;;;83.93;34.13;;;;;;;6.38;100.00;96320.47;6134925;23;20667;-79
2022/03/16 07:38:48;;;;;;;74.63;36.67;;;;;;;6.42;100.00;96314.97;6159315;23;20186;-80
2022/03/16 07:41:15;;;;;;;76.70;34.00;;;;;;;6.41;100.00;96315.91;6185709;23;20205;-79
2022/03/16 07:43:40;;;;;;;72.80;34.13;;;;;;;6.59;100.00;96323.34;6159560;23;20791;-78
2022/03/16 07:46:05;;;;;;;64.63;33.97;;;;;;;6.69;100.00;96316.63;6135407;23;20163;-78
2022/03/16 07:48:31;;;;;;;62.80;33.27;;;;;;;6.75;100.00;96323.94;6135477;23;20159;-78
2022/03/16 07:50:56;;;;;;;61.07;32.13;;;;;;;6.80;100.00;96321.84;6176487;23;20206;-78
2022/03/16 07:53:21;;;;;;;66.50;33.30;;;;;;;6.88;100.00;96319.56;6158997;23;20161;-78
2022/03/16 07:55:48;;;;;;;63.10;33.10;;;;;;;6.94;100.00;96318.34;6158784;23;20169;-78
2022/03/16 07:58:13;;;;;;;76.40;30.97;;;;;;;6.91;100.00;96327.13;6187905;23;20170;-79
2022/03/16 08:00:38;;;;;;;54.47;29.07;;;;;;;7.03;100.00;96326.25;6184791;23;20159;-79
2022/03/16 08:03:04;;;;;;;58.00;30.97;;;;;;;7.04;100.00;96325.34;6184383;23;20233;-77
2022/03/16 08:05:30;;;;;;;61.80;27.97;;;;;;;7.01;100.00;96324.72;6185854;23;20154;-78
2022/03/16 08:07:55;;;;;;;59.83;29.07;;;;;;;7.08;100.00;96319.03;6184040;23;20256;-79
2022/03/16 08:10:21;;;;;;;68.53;28.60;;;;;;;7.03;100.00;96322.88;6184261;23;20158;-78
2022/03/16 08:12:46;;;;;;;58.63;29.87;;;;;;;7.15;100.00;96309.06;6183635;23;20159;-79
2022/03/16 08:15:12;;;;;;;60.87;28.00;;;;;;;7.24;100.00;96318.75;6159368;23;20181;-80
2022/03/16 08:17:37;;;;;;;54.43;27.73;;;;;;;7.24;100.00;96311.00;6160291;23;20169;-79
2022/03/16 08:20:03;;;;;;;70.00;36.70;;;;;;;7.23;100.00;96308.53;6160110;23;20170;-79
2022/03/16 08:22:30;;;;;;;67.13;36.10;;;;;;;7.40;100.00;96310.75;6158833;23;20173;-79
2022/03/16 08:24:55;;;;;;;62.43;33.63;;;;;;;7.52;100.00;96311.66;6184579;23;20197;-79
2022/03/16 08:27:21;;;;;;;54.93;28.00;;;;;;;7.58;100.00;96301.69;6184462;23;20225;-79
2022/03/16 08:29:47;;;;;;;57.87;29.23;;;;;;;7.73;100.00;96297.16;6159359;23;20158;-78
2022/03/16 08:32:12;;;;;;;54.60;28.03;;;;;;;7.73;100.00;96306.69;6158935;23;20205;-79
2022/03/16 08:34:37;;;;;;;54.67;28.43;;;;;;;7.80;100.00;96307.91;6158592;23;20532;-79
2022/03/16 08:37:03;;;;;;;53.97;27.90;;;;;;;7.89;100.00;96304.63;6183615;23;20151;-79
2022/03/16 08:39:29;;;;;;;50.93;27.13;;;;;;;8.02;100.00;96304.53;6158015;23;20166;-79
2022/03/16 08:41:54;;;;;;;51.23;27.93;;;;;;;7.97;100.00;96304.06;6181359;23;20150;-79
2022/03/16 08:44:20;;;;;;;49.27;26.80;;;;;;;8.07;100.00;96298.09;6177607;23;20542;-79
2022/03/16 08:46:46;;;;;;;49.90;26.93;;;;;;;8.12;100.00;96306.31;6156241;23;20240;-80
2022/03/16 08:49:11;;;;;;;51.60;27.50;;;;;;;8.14;100.00;96301.06;6153177;23;20154;-79
2022/03/16 08:51:36;;;;;;;55.47;29.07;;;;;;;8.21;100.00;96308.22;6182754;23;20150;-79
2022/03/16 08:54:02;;;;;;;51.63;28.00;;;;;;;8.26;100.00;96307.91;6178225;23;20174;-79
2022/03/16 08:56:27;;;;;;;53.90;28.97;;;;;;;8.38;100.00;96303.59;6145424;23;20726;-79
2022/03/16 08:58:52;;;;;;;49.50;28.10;;;;;;;8.34;100.00;96302.16;6176357;23;20243;-78
2022/03/16 09:01:17;;;;;;;52.70;29.83;;;;;;;8.37;100.00;96297.59;6157345;23;20158;-78
2022/03/16 09:03:43;;;;;;;56.47;30.73;;;;;;;8.31;100.00;96307.56;6156635;23;20812;-79
2022/03/16 09:06:08;;;;;;;58.33;30.70;;;;;;;8.47;100.00;96298.53;6166461;23;20163;-78
2022/03/16 09:08:34;;;;;;;61.07;34.07;;;;;;;8.40;100.00;96293.97;6162354;23;20246;-79
2022/03/16 09:10:59;;;;;;;62.83;34.40;;;;;;;8.48;100.00;96289.84;6147963;23;20499;-79
2022/03/16 09:13:24;;;;;;;63.97;35.13;;;;;;;8.38;100.00;96293.22;6142927;23;20238;-78
2022/03/16 09:15:51;;;;;;;67.60;34.93;;;;;;;8.38;100.00;96294.06;6147301;23;20249;-79
2022/03/16 09:18:18;;;;;;;68.23;36.37;;;;;;;8.25;100.00;96298.50;6137520;23;20540;-79
2022/03/16 09:20:44;;;;;;;68.77;35.87;;;;;;;8.12;100.00;96298.56;6162304;23;20349;-79
2022/03/16 09:23:09;;;;;;;71.57;37.03;;;;;;;8.14;100.00;96296.72;6172032;23;20162;-79
2022/03/16 09:25:35;;;;;;;77.77;38.53;;;;;;;8.12;100.00;96303.75;6169125;23;20159;-79
2022/03/16 09:28:01;;;;;;;75.20;40.43;;;;;;;8.21;100.00;96299.66;6151781;23;20166;-79
2022/03/16 09:30:27;;;;;;;78.73;38.63;;;;;;;8.28;100.00;96305.19;6175560;23;20170;-79
2022/03/16 09:32:57;;;;;;;71.67;38.13;;;;;;;8.31;100.00;96302.41;6142066;23;20170;-78
2022/03/16 09:35:24;;;;;;;69.27;36.40;;;;;;;8.11;100.00;96312.44;6172696;23;20194;-79
2022/03/16 09:37:50;;;;;;;73.07;37.90;;;;;;;8.15;100.00;96302.72;6174646;23;20391;-78
2022/03/16 09:40:17;;;;;;;71.40;38.17;;;;;;;8.14;100.00;96301.06;6151809;23;20489;-79
2022/03/16 09:42:42;;;;;;;72.37;38.23;;;;;;;8.23;100.00;96297.78;6192899;23;20155;-79
2022/03/16 09:45:10;;;;;;;68.37;37.10;;;;;;;8.26;100.00;96300.13;6144648;23;20198;-78
2022/03/16 09:47:36;;;;;;;75.93;36.80;;;;;;;8.29;100.00;96299.91;6145060;23;20162;-80
2022/03/16 09:50:02;;;;;;;70.50;40.07;;;;;;;8.30;100.00;96300.72;6144986;23;20163;-80
2022/03/16 09:52:28;;;;;;;77.40;40.13;;;;;;;8.37;100.00;96279.47;6170316;23;20165;-79
2022/03/16 09:54:54;;;;;;;70.90;40.20;;;;;;;8.40;100.00;96292.19;6169752;23;20513;-79
2022/03/16 09:57:19;;;;;;;71.87;37.40;;;;;;;8.31;100.00;96289.47;6176326;23;20159;-78
2022/03/16 09:59:44;;;;;;;86.87;38.07;;;;;;;8.32;100.00;96291.09;6178618;23;20224;-79
2022/03/16 10:02:15;;;;;;;60.37;36.80;;;;;;;8.35;100.00;96286.53;6152205;23;20609;-79
2022/03/16 10:04:41;;;;;;;59.83;35.67;;;;;;;8.28;100.00;96287.06;6196118;23;20189;-79
2022/03/16 10:07:07;;;;;;;60.83;34.67;;;;;;;8.35;100.00;96283.94;6170289;23;20166;-80
2022/03/16 10:15:11;;;;;;;58.67;35.10;;;;;;;8.43;100.00;96279.03;6171803;23;20232;-81
2022/03/16 10:17:43;;;;;;;79.97;35.57;;;;;;;8.36;100.00;96284.78;6171404;23;20154;-79
2022/03/16 10:20:20;;;;;;;61.50;35.90;;;;;;;8.29;100.00;96286.97;6148115;23;20155;-79
2022/03/16 10:22:57;;;;;;;78.60;36.50;;;;;;;8.35;100.00;96278.78;6169747;23;20311;-79
2022/03/16 10:25:23;;;;;;;68.60;37.50;;;;;;;8.36;100.00;96282.19;6146361;23;20638;-78
2022/03/16 10:27:48;;;;;;;62.67;35.87;;;;;;;8.32;100.00;96275.56;6170311;23;20158;-78
2022/03/16 10:30:13;;;;;;;86.77;38.17;;;;;;;8.34;100.00;96271.09;6145866;23;20500;-80
2022/03/16 10:32:40;;;;;;;72.30;37.93;;;;;;;8.35;100.00;96270.19;6146533;23;20167;-79
2022/03/16 10:35:05;;;;;;;68.30;38.10;;;;;;;8.39;100.00;96272.44;6145526;23;20200;-79
2022/03/16 10:37:34;;;;;;;61.20;36.47;;;;;;;8.41;100.00;96274.91;6144447;23;20194;-79
2022/03/16 10:40:00;;;;;;;90.23;37.57;;;;;;;8.29;100.00;96275.78;6193955;23;20227;-79
2022/03/16 10:48:11;;;;;;;68.57;37.47;;;;;;;8.18;100.00;96276.59;6171452;23;20879;-80
2022/03/16 10:50:39;;;;;;;62.43;36.60;;;;;;;8.33;100.00;96270.28;6174591;23;20147;-78
2022/03/16 10:53:04;;;;;;;69.40;39.07;;;;;;;8.42;100.00;96271.38;6171049;23;20560;-78
2022/03/16 10:55:30;;;;;;;68.40;37.43;;;;;;;8.44;100.00;96262.53;6171909;23;20162;-78
2022/03/16 10:57:55;;;;;;;68.70;38.17;;;;;;;8.39;100.00;96269.84;6144363;23;20162;-77
2022/03/16 11:00:21;;;;;;;73.17;38.40;;;;;;;8.38;100.00;96269.94;6148375;23;20561;-78
2022/03/16 11:02:47;;;;;;;65.23;37.13;;;;;;;8.40;100.00;96273.25;6146941;23;20479;-78
2022/03/16 11:05:18;;;;;;;65.10;37.50;;;;;;;8.37;100.00;96276.06;6194176;23;20197;-78
2022/03/16 11:07:47;;;;;;;69.87;39.87;;;;;;;8.42;100.00;96273.97;6157491;23;20151;-78
2022/03/16 11:10:12;;;;;;;66.67;39.87;;;;;;;8.45;100.00;96278.91;6183542;23;20151;-79
2022/03/16 11:15:22;;;;;;;71.10;37.23;;;;;;;8.35;100.00;96277.94;6176148;23;20185;-78
2022/03/16 11:17:47;;;;;;;65.57;38.13;;;;;;;8.36;100.00;96277.81;6172333;23;20229;-79
2022/03/16 11:20:12;;;;;;;65.37;37.67;;;;;;;8.38;100.00;96275.13;6151900;23;20173;-79
2022/03/16 11:25:34;;;;;;;66.83;38.00;;;;;;;8.39;100.00;96277.63;6188682;23;20891;-79
2022/03/16 11:28:02;;;;;;;70.93;39.70;;;;;;;8.32;100.00;96273.00;6165813;23;20437;-79